Time;durP1;ratioP1;P1;durP2;ratioP2;P2;SDS_P1;SDS_P2;PMS_P1;PMS_P2;Temp;Humidity;BMP_temperature;BMP_pressure;BME280_temperature;BME280_humidity;BME280_pressure;Samples;Min_cycle;Max_cycle;Signal;HPM_P1;HPM_P2
2022/11/29 00:00:58;;;;;;;0.93;0.70;;;6.60;99.90;;;;;;5067012;28;20020;-75
2022/11/29 00:03:25;;;;;;;7.15;0.70;;;6.60;99.90;;;;;;5067456;28;20489;-76
2022/11/29 00:05:50;;;;;;;2.75;1.90;;;6.70;99.90;;;;;;5068334;28;20036;-85
2022/11/29 00:08:17;;;;;;;1.40;0.60;;;6.60;99.90;;;;;;5067676;28;20028;-77
2022/11/29 00:10:43;;;;;;;1.42;1.33;;;6.70;99.90;;;;;;5068463;28;20063;-79
2022/11/29 00:13:08;;;;;;;0.73;0.50;;;6.70;99.90;;;;;;5048901;28;20056;-76
2022/11/29 00:15:36;;;;;;;3.42;0.73;;;6.60;99.90;;;;;;5066371;28;20065;-76
2022/11/29 00:18:02;;;;;;;0.68;0.43;;;6.60;99.90;;;;;;5048928;28;20042;-75
2022/11/29 00:20:27;;;;;;;1.13;0.70;;;6.70;99.90;;;;;;5069233;28;20020;-78
2022/11/29 00:22:53;;;;;;;2.97;0.73;;;6.70;99.90;;;;;;5070404;28;20053;-76
2022/11/29 00:25:19;;;;;;;3.10;0.75;;;6.70;99.90;;;;;;5052325;28;20050;-76
2022/11/29 00:27:44;;;;;;;2.78;0.60;;;6.70;99.90;;;;;;5052787;28;20531;-77
2022/11/29 00:30:11;;;;;;;7.63;0.80;;;6.60;99.90;;;;;;5070801;28;20097;-75
2022/11/29 00:32:36;;;;;;;2.95;1.02;;;6.60;99.90;;;;;;5070806;28;20021;-76
2022/11/29 00:35:03;;;;;;;1.80;0.90;;;6.60;99.90;;;;;;5069908;28;20031;-77
2022/11/29 00:37:28;;;;;;;2.25;1.40;;;6.60;99.90;;;;;;5052675;28;20105;-75
2022/11/29 00:39:54;;;;;;;0.88;0.70;;;6.50;99.90;;;;;;5072221;28;20024;-76
2022/11/29 00:42:20;;;;;;;4.55;0.52;;;6.50;99.90;;;;;;5070013;28;20024;-79
2022/11/29 00:44:46;;;;;;;1.65;0.50;;;;;;;;;;5067769;28;20024;-77
2022/11/29 00:47:11;;;;;;;3.50;1.23;;;6.40;99.90;;;;;;5068759;28;20053;-76
2022/11/29 00:49:37;;;;;;;1.60;1.50;;;6.40;99.90;;;;;;5068192;28;20029;-76
2022/11/29 00:52:03;;;;;;;1.10;0.73;;;6.30;99.90;;;;;;5047186;28;20088;-76
2022/11/29 00:54:29;;;;;;;0.57;0.57;;;6.30;99.90;;;;;;5047080;28;20029;-81
2022/11/29 00:56:54;;;;;;;2.70;1.30;;;6.50;99.90;;;;;;5046943;28;20059;-76
2022/11/29 00:59:20;;;;;;;1.85;0.82;;;6.40;99.90;;;;;;5048496;28;20124;-77
2022/11/29 01:01:46;;;;;;;2.30;0.57;;;6.20;99.90;;;;;;5050135;28;20130;-78
2022/11/29 01:04:12;;;;;;;4.43;1.33;;;6.20;99.90;;;;;;5049884;28;20076;-75
2022/11/29 01:06:37;;;;;;;3.88;1.35;;;6.10;99.90;;;;;;5050061;28;20477;-77
2022/11/29 01:09:04;;;;;;;0.85;0.50;;;6.00;99.90;;;;;;5049715;28;20401;-76
2022/11/29 01:11:29;;;;;;;3.03;0.63;;;6.10;99.90;;;;;;5049909;28;20028;-76
2022/11/29 01:13:58;;;;;;;1.23;0.80;;;6.10;99.90;;;;;;5048704;28;20432;-76
2022/11/29 01:16:25;;;;;;;0.75;0.55;;;5.80;99.90;;;;;;5047998;28;20041;-75
2022/11/29 01:18:51;;;;;;;2.63;1.00;;;5.60;99.90;;;;;;5049599;28;20017;-77
2022/11/29 01:21:19;;;;;;;2.65;1.52;;;5.60;99.90;;;;;;5048611;28;20377;-76
2022/11/29 01:23:46;;;;;;;1.27;1.00;;;5.60;99.90;;;;;;5049376;28;20470;-77
2022/11/29 01:26:21;;;;;;;1.02;0.52;;;5.60;99.90;;;;;;5049421;28;20064;-76
2022/11/29 01:28:49;;;;;;;3.35;0.95;;;6.10;99.90;;;;;;5049498;28;20028;-76
2022/11/29 01:31:20;;;;;;;0.95;0.70;;;5.60;99.90;;;;;;5047391;28;20021;-77
2022/11/29 01:33:46;;;;;;;2.80;0.63;;;6.40;99.90;;;;;;5049621;28;20028;-77
2022/11/29 01:36:13;;;;;;;1.00;0.75;;;6.50;99.90;;;;;;5049005;28;20033;-75
2022/11/29 01:38:39;;;;;;;7.43;1.40;;;;;;;;;;5048876;28;20029;-79
2022/11/29 01:41:20;;;;;;;9.90;1.17;;;5.60;99.90;;;;;;5049616;28;20079;-76
2022/11/29 01:43:57;;;;;;;1.20;1.05;;;5.70;99.90;;;;;;5049525;28;20029;-78
2022/11/29 01:46:24;;;;;;;4.43;1.42;;;5.90;99.90;;;;;;5065503;28;20480;-76
2022/11/29 01:48:52;;;;;;;2.63;1.25;;;6.00;99.90;;;;;;5069498;28;20029;-78
2022/11/29 01:51:18;;;;;;;2.72;2.25;;;6.00;99.90;;;;;;5067217;28;20047;-76
2022/11/29 01:53:44;;;;;;;5.72;2.10;;;6.20;99.90;;;;;;5067341;28;20017;-76
2022/11/29 01:56:11;;;;;;;9.95;1.83;;;6.00;99.90;;;;;;5067287;28;20388;-78
2022/11/29 01:58:36;;;;;;;3.45;2.20;;;6.00;99.90;;;;;;5068883;28;20294;-75
2022/11/29 02:01:02;;;;;;;9.45;1.85;;;6.30;99.90;;;;;;5068821;28;20366;-76
2022/11/29 02:03:28;;;;;;;9.77;3.05;;;6.10;99.90;;;;;;5068779;28;20024;-76
2022/11/29 02:05:54;;;;;;;1.27;1.00;;;6.10;99.90;;;;;;5069145;28;20025;-76
2022/11/29 02:08:38;;;;;;;6.60;1.92;;;6.20;99.90;;;;;;5067113;28;20032;-77
2022/11/29 02:11:14;;;;;;;3.55;1.55;;;6.10;99.90;;;;;;5067739;28;20025;-77
2022/11/29 02:14:00;;;;;;;3.58;2.15;;;6.10;99.90;;;;;;5068621;28;20071;-77
2022/11/29 02:16:44;;;;;;;2.67;1.35;;;6.10;99.90;;;;;;5068154;28;20134;-80
2022/11/29 02:19:42;;;;;;;8.70;1.50;;;6.20;99.90;;;;;;5068455;28;20059;-77
2022/11/29 02:22:19;;;;;;;3.08;2.25;;;6.20;99.90;;;;;;5067115;28;20568;-76
2022/11/29 02:25:00;;;;;;;3.85;1.65;;;6.20;99.90;;;;;;5068387;28;20035;-78
2022/11/29 02:27:43;;;;;;;1.95;1.10;;;6.20;99.90;;;;;;5066180;28;20477;-76
2022/11/29 02:30:20;;;;;;;2.15;0.98;;;6.10;99.90;;;;;;5048210;28;20112;-76
2022/11/29 02:33:07;;;;;;;4.28;1.13;;;6.10;99.90;;;;;;5048331;28;20106;-76
2022/11/29 02:35:50;;;;;;;2.63;1.17;;;6.20;99.90;;;;;;5047916;28;20367;-77
2022/11/29 02:38:37;;;;;;;4.03;1.58;;;6.50;99.90;;;;;;5046619;28;20509;-76
2022/11/29 02:41:41;;;;;;;2.60;1.58;;;6.20;99.90;;;;;;5047052;28;20470;-77
2022/11/29 02:44:18;;;;;;;7.22;1.85;;;6.20;99.90;;;;;;5046981;28;20091;-75
2022/11/29 02:47:31;;;;;;;13.48;2.08;;;6.20;99.90;;;;;;5065256;28;20032;-77
2022/11/29 02:50:24;;;;;;;1.88;1.67;;;6.20;99.90;;;;;;5014990;28;20041;-80
2022/11/29 02:53:25;;;;;;;3.38;1.65;;;6.30;99.90;;;;;;5045253;28;20517;-76
2022/11/29 02:56:10;;;;;;;2.25;1.77;;;6.30;99.90;;;;;;5045924;28;20408;-76
2022/11/29 02:58:54;;;;;;;3.10;1.85;;;6.30;99.90;;;;;;5045719;28;20036;-77
2022/11/29 03:01:40;;;;;;;2.08;1.17;;;6.30;99.90;;;;;;5047176;28;20047;-76
2022/11/29 03:04:41;;;;;;;3.33;2.15;;;6.30;99.90;;;;;;5044796;28;20032;-76
2022/11/29 03:07:31;;;;;;;10.13;1.73;;;6.30;99.90;;;;;;5047033;28;20100;-76
2022/11/29 03:10:33;;;;;;;3.15;2.03;;;6.30;99.90;;;;;;5045506;28;20025;-76
2022/11/29 03:13:04;;;;;;;3.10;1.27;;;6.20;99.90;;;;;;5047883;28;20025;-76
2022/11/29 03:15:37;;;;;;;7.18;1.83;;;6.30;99.90;;;;;;5047529;28;20422;-77
2022/11/29 03:18:06;;;;;;;1.88;1.23;;;6.30;99.90;;;;;;5045932;28;20110;-76
2022/11/29 03:20:50;;;;;;;2.40;1.63;;;6.30;99.90;;;;;;5045834;28;20382;-76
2022/11/29 03:23:33;;;;;;;6.97;2.97;;;6.40;99.90;;;;;;5047452;28;20025;-79
2022/11/29 03:26:04;;;;;;;9.48;1.67;;;6.50;99.90;;;;;;5046280;28;20029;-75
2022/11/29 03:28:33;;;;;;;4.25;1.77;;;6.50;99.90;;;;;;5047191;28;20048;-76
2022/11/29 03:31:25;;;;;;;1.92;1.75;;;6.50;99.90;;;;;;5057815;28;20032;-77
2022/11/29 03:34:16;;;;;;;2.85;1.75;;;6.50;99.90;;;;;;5065504;28;20111;-76
2022/11/29 03:36:55;;;;;;;4.03;2.00;;;6.50;99.90;;;;;;5065875;28;20020;-77
2022/11/29 03:39:32;;;;;;;5.00;1.35;;;6.50;99.90;;;;;;5066586;28;20028;-76
2022/11/29 03:42:09;;;;;;;8.30;3.03;;;6.50;99.90;;;;;;5065317;28;20508;-78
2022/11/29 03:44:53;;;;;;;4.15;1.38;;;6.60;99.90;;;;;;5065679;28;20107;-76
2022/11/29 03:47:27;;;;;;;1.77;1.42;;;6.50;99.90;;;;;;5045202;28;20104;-76
2022/11/29 03:50:04;;;;;;;2.72;1.38;;;6.50;99.90;;;;;;5046414;28;20071;-75
2022/11/29 03:52:49;;;;;;;2.13;1.30;;;6.50;99.90;;;;;;5045440;28;20205;-76
2022/11/29 03:55:21;;;;;;;5.43;1.52;;;6.60;99.90;;;;;;5044984;28;20374;-76
2022/11/29 03:58:14;;;;;;;2.97;1.98;;;6.60;99.90;;;;;;5046522;28;20041;-75
2022/11/29 04:00:48;;;;;;;5.15;1.63;;;6.60;99.90;;;;;;5044497;28;20529;-76
2022/11/29 04:03:38;;;;;;;4.07;2.30;;;6.60;99.90;;;;;;5045415;28;20520;-75
2022/11/29 04:06:13;;;;;;;1.20;1.10;;;6.60;99.90;;;;;;5045269;28;20385;-76
2022/11/29 04:09:16;;;;;;;2.60;1.40;;;6.60;99.90;;;;;;5044904;28;20090;-76
2022/11/29 04:11:53;;;;;;;2.15;2.00;;;6.60;99.90;;;;;;5046375;28;20033;-77
2022/11/29 04:14:56;;;;;;;9.88;1.67;;;6.60;99.90;;;;;;5045310;28;20502;-76
2022/11/29 04:17:48;;;;;;;1.85;1.67;;;6.60;99.90;;;;;;5045753;28;20182;-76
2022/11/29 04:20:35;;;;;;;1.90;1.27;;;6.60;99.90;;;;;;5010207;28;20033;-77
2022/11/29 04:23:25;;;;;;;3.08;1.52;;;6.60;99.90;;;;;;5045286;28;20128;-76
2022/11/29 04:26:16;;;;;;;9.55;1.90;;;6.70;99.90;;;;;;5046611;28;20056;-76
2022/11/29 04:29:18;;;;;;;10.77;1.70;;;6.60;99.90;;;;;;5045442;28;20527;-76
2022/11/29 04:31:59;;;;;;;4.10;2.08;;;6.60;99.90;;;;;;5045584;28;20108;-76
2022/11/29 04:34:49;;;;;;;3.08;2.53;;;6.60;99.90;;;;;;5044797;28;20497;-76
2022/11/29 04:37:18;;;;;;;7.40;2.00;;;6.70;99.90;;;;;;5045102;28;20385;-76
2022/11/29 04:40:01;;;;;;;4.97;1.42;;;6.70;99.90;;;;;;5044692;28;20036;-76
2022/11/29 04:42:39;;;;;;;5.50;2.47;;;6.70;99.90;;;;;;5045140;28;20268;-75
2022/11/29 04:45:27;;;;;;;8.38;2.78;;;6.70;99.90;;;;;;5049584;28;20029;-76
2022/11/29 04:47:56;;;;;;;3.50;1.63;;;6.70;99.90;;;;;;5066344;28;20032;-77
2022/11/29 04:50:40;;;;;;;2.33;1.90;;;6.70;99.90;;;;;;5065712;28;20035;-76
2022/11/29 04:53:31;;;;;;;5.47;2.97;;;6.70;99.90;;;;;;5084168;28;20036;-76
2022/11/29 04:56:08;;;;;;;8.68;1.65;;;6.60;99.90;;;;;;5067737;28;20404;-76
2022/11/29 04:58:47;;;;;;;6.95;2.33;;;6.70;99.90;;;;;;5067956;28;20526;-76
2022/11/29 05:01:42;;;;;;;3.25;1.90;;;6.60;99.90;;;;;;5068350;28;20028;-76
2022/11/29 05:04:13;;;;;;;3.83;1.90;;;6.60;99.90;;;;;;5085858;28;20031;-76
2022/11/29 05:07:29;;;;;;;1.50;1.40;;;6.60;99.90;;;;;;5069302;28;20032;-76
2022/11/29 05:09:59;;;;;;;5.60;3.22;;;6.50;99.90;;;;;;4987459;28;20057;-75
2022/11/29 05:12:46;;;;;;;5.20;2.58;;;6.60;99.90;;;;;;5054227;28;20125;-75
2022/11/29 05:15:45;;;;;;;8.85;3.83;;;6.60;99.90;;;;;;5090536;28;20077;-75
2022/11/29 05:18:11;;;;;;;3.28;2.50;;;6.60;99.90;;;;;;5090626;28;20224;-75
2022/11/29 05:20:54;;;;;;;2.13;1.35;;;6.60;99.90;;;;;;5090369;28;20031;-75
2022/11/29 05:23:46;;;;;;;2.45;1.73;;;6.60;99.90;;;;;;5072155;28;20495;-74
2022/11/29 05:26:18;;;;;;;3.83;2.60;;;6.50;99.90;;;;;;5072432;28;20614;-74
2022/11/29 05:29:09;;;;;;;6.15;3.05;;;6.60;99.90;;;;;;5092174;28;20452;-74
2022/11/29 05:31:52;;;;;;;3.17;1.83;;;6.50;99.90;;;;;;5073880;28;20046;-74
2022/11/29 05:34:27;;;;;;;11.40;2.75;;;8.70;99.90;;;;;;5073454;28;20031;-74
2022/11/29 05:36:55;;;;;;;4.40;2.55;;;6.50;99.90;;;;;;5073518;28;20024;-74
2022/11/29 05:39:51;;;;;;;6.07;2.90;;;6.50;99.90;;;;;;5073738;28;20056;-75
2022/11/29 05:42:51;;;;;;;2.67;2.47;;;6.60;99.90;;;;;;5073620;28;20027;-75
2022/11/29 05:45:23;;;;;;;3.33;2.70;;;6.50;99.90;;;;;;5073662;28;20023;-75
2022/11/29 05:48:16;;;;;;;8.18;2.63;;;6.50;99.90;;;;;;5073278;28;20107;-75
2022/11/29 05:50:52;;;;;;;10.50;2.80;;;6.60;99.90;;;;;;5026366;28;20128;-74
2022/11/29 05:53:55;;;;;;;10.38;2.70;;;6.50;99.90;;;;;;5073267;28;20521;-75
2022/11/29 05:56:44;;;;;;;9.40;2.90;;;6.60;99.90;;;;;;5091660;28;20028;-75
2022/11/29 05:59:16;;;;;;;11.52;2.45;;;6.50;99.90;;;;;;5091700;28;20028;-75
2022/11/29 06:01:51;;;;;;;5.82;2.13;;;6.60;99.90;;;;;;5073450;28;20507;-75
2022/11/29 06:04:54;;;;;;;9.30;1.85;;;6.50;99.90;;;;;;5091435;28;20028;-75
2022/11/29 06:07:26;;;;;;;6.75;3.05;;;6.50;99.90;;;;;;5073065;28;20032;-75
2022/11/29 06:10:03;;;;;;;14.60;2.60;;;6.40;99.90;;;;;;5091200;28;20032;-75
2022/11/29 06:12:34;;;;;;;2.80;2.30;;;6.40;99.90;;;;;;5073329;28;20039;-74
2022/11/29 06:15:18;;;;;;;5.68;2.42;;;6.30;99.90;;;;;;5091353;28;20028;-75
2022/11/29 06:17:59;;;;;;;7.05;2.25;;;6.20;99.90;;;;;;5090868;28;20036;-74
2022/11/29 06:20:36;;;;;;;4.78;2.30;;;6.20;99.90;;;;;;5064309;28;20508;-75
2022/11/29 06:23:18;;;;;;;1.85;1.70;;;6.10;99.90;;;;;;5067014;28;20106;-76
2022/11/29 06:26:15;;;;;;;12.90;3.05;;;6.10;99.90;;;;;;5091293;28;20477;-74
2022/11/29 06:29:19;;;;;;;6.80;3.70;;;6.20;99.90;;;;;;4985745;28;20030;-77
2022/11/29 06:31:55;;;;;;;5.15;1.92;;;6.20;99.90;;;;;;4972513;28;20111;-77
2022/11/29 06:34:39;;;;;;;4.78;3.25;;;6.30;99.90;;;;;;5076058;28;20032;-76
2022/11/29 06:37:14;;;;;;;5.65;1.73;;;6.30;99.90;;;;;;5090762;28;20036;-76
2022/11/29 06:39:40;;;;;;;11.85;2.85;;;6.30;99.90;;;;;;5090828;28;20024;-77
2022/11/29 06:42:05;;;;;;;5.45;3.70;;;4.10;99.90;;;;;;5090638;28;20507;-75
2022/11/29 06:44:31;;;;;;;5.70;2.42;;;6.30;99.90;;;;;;5070148;28;20060;-76
2022/11/29 06:47:07;;;;;;;6.30;2.55;;;6.10;99.90;;;;;;5068185;28;20522;-76
2022/11/29 06:49:39;;;;;;;6.38;2.22;;;6.10;99.90;;;;;;5051954;28;20021;-76
2022/11/29 06:52:29;;;;;;;6.13;2.92;;;6.10;99.90;;;;;;5052093;28;20190;-76
2022/11/29 06:55:12;;;;;;;5.50;1.95;;;6.10;99.90;;;;;;5070102;28;20108;-76
2022/11/29 06:58:09;;;;;;;4.32;2.42;;;6.00;99.90;;;;;;5069872;28;20035;-77
2022/11/29 07:01:01;;;;;;;8.13;2.30;;;6.00;99.90;;;;;;5034960;28;20040;-76
2022/11/29 07:03:36;;;;;;;4.82;2.28;;;5.90;99.90;;;;;;5021384;28;20033;-75
2022/11/29 07:06:20;;;;;;;7.43;2.05;;;5.90;99.90;;;;;;5069805;28;20020;-77
2022/11/29 07:08:51;;;;;;;5.47;2.60;;;5.80;99.90;;;;;;5051761;28;20024;-77
2022/11/29 07:11:17;;;;;;;9.52;3.55;;;6.50;99.90;;;;;;5069832;28;20433;-76
2022/11/29 07:13:43;;;;;;;7.10;2.65;;;5.80;99.90;;;;;;5069605;28;20475;-77
2022/11/29 07:16:38;;;;;;;9.60;3.10;;;5.80;99.90;;;;;;5069535;28;20020;-76
2022/11/29 07:19:32;;;;;;;6.10;2.40;;;5.80;99.90;;;;;;5069351;28;20051;-76
2022/11/29 07:22:06;;;;;;;3.03;2.75;;;5.80;99.90;;;;;;5021033;28;20036;-78
2022/11/29 07:25:01;;;;;;;10.98;2.92;;;5.90;99.90;;;;;;5069531;28;20036;-77
2022/11/29 07:28:05;;;;;;;7.10;2.50;;;5.90;99.90;;;;;;5038024;28;20047;-76
2022/11/29 07:31:01;;;;;;;4.88;2.75;;;6.00;99.90;;;;;;5029989;28;20032;-77
2022/11/29 07:34:17;;;;;;;7.50;3.15;;;6.00;99.90;;;;;;4980138;28;20062;-76
2022/11/29 07:37:09;;;;;;;8.80;4.72;;;6.00;99.90;;;;;;5069380;28;20035;-76
2022/11/29 07:39:41;;;;;;;6.25;3.75;;;6.10;99.90;;;;;;5069457;28;20465;-76
2022/11/29 07:42:35;;;;;;;3.80;3.22;;;6.10;99.90;;;;;;5051407;28;20025;-75
2022/11/29 07:45:25;;;;;;;5.57;2.58;;;6.20;99.90;;;;;;5057703;28;20119;-76
2022/11/29 07:47:51;;;;;;;5.10;2.50;;;;;;;;;;5069154;28;20020;-76
2022/11/29 07:50:17;;;;;;;27.58;6.30;;;6.50;99.90;;;;;;5069227;28;20024;-76
2022/11/29 07:52:42;;;;;;;48.25;11.25;;;6.50;99.90;;;;;;5051146;28;20075;-76
2022/11/29 07:55:16;;;;;;;48.83;9.27;;;6.60;99.90;;;;;;5069510;28;20569;-76
2022/11/29 07:57:42;;;;;;;35.33;5.68;;;6.70;99.90;;;;;;5050933;28;20041;-77
2022/11/29 08:00:09;;;;;;;13.85;5.65;;;6.70;99.90;;;;;;5051401;28;20024;-76
2022/11/29 08:02:35;;;;;;;16.00;4.53;;;6.80;99.90;;;;;;5057824;28;20258;-77
2022/11/29 08:05:00;;;;;;;12.38;3.28;;;6.90;99.90;;;;;;5068470;28;20420;-76
2022/11/29 08:07:26;;;;;;;5.38;4.20;;;7.10;99.90;;;;;;5057266;28;20016;-76
2022/11/29 08:09:52;;;;;;;10.60;5.80;;;7.30;99.90;;;;;;5050920;28;20021;-76
2022/11/29 08:12:18;;;;;;;9.93;3.70;;;7.50;99.90;;;;;;5050747;28;20068;-77
2022/11/29 08:14:44;;;;;;;9.65;4.53;;;7.60;99.90;;;;;;5051222;28;20055;-77
2022/11/29 08:17:09;;;;;;;5.72;3.42;;;7.70;99.90;;;;;;5068830;28;20078;-77
2022/11/29 08:19:35;;;;;;;4.53;4.07;;;5.90;99.90;;;;;;5050140;28;20029;-76
2022/11/29 08:22:01;;;;;;;8.18;2.95;;;7.70;99.90;;;;;;5049272;28;20031;-77
2022/11/29 08:24:27;;;;;;;3.05;2.75;;;7.80;99.90;;;;;;5067172;28;20029;-76
2022/11/29 08:26:52;;;;;;;4.47;2.28;;;7.80;99.90;;;;;;5067245;28;20016;-77
2022/11/29 08:29:18;;;;;;;5.40;2.13;;;7.80;99.90;;;;;;5067279;28;20425;-76
2022/11/29 08:31:44;;;;;;;6.78;2.45;;;7.70;99.90;;;;;;5049389;28;20052;-77
2022/11/29 08:34:10;;;;;;;4.70;2.90;;;7.80;99.90;;;;;;5067688;28;20035;-76
2022/11/29 08:36:37;;;;;;;4.10;2.50;;;7.80;99.90;;;;;;5046820;28;20051;-76
2022/11/29 08:39:03;;;;;;;10.27;3.03;;;7.90;99.90;;;;;;5078797;28;20126;-77
2022/11/29 08:41:29;;;;;;;7.60;2.10;;;7.90;99.90;;;;;;5087637;28;20020;-76
2022/11/29 08:43:55;;;;;;;5.13;2.70;;;7.90;99.90;;;;;;5071919;28;20129;-76
2022/11/29 08:46:21;;;;;;;7.85;3.38;;;7.90;99.90;;;;;;5052893;28;20564;-77
2022/11/29 08:48:47;;;;;;;13.48;2.92;;;8.00;99.90;;;;;;5051718;28;20413;-76
2022/11/29 08:51:13;;;;;;;3.97;1.98;;;8.10;99.90;;;;;;5068413;28;20036;-76
2022/11/29 08:53:43;;;;;;;8.23;2.53;;;8.10;99.90;;;;;;5069235;28;20098;-76
2022/11/29 08:56:15;;;;;;;3.95;2.00;;;10.70;99.90;;;;;;5069208;28;20036;-77
2022/11/29 08:58:41;;;;;;;5.50;1.80;;;8.30;99.90;;;;;;5089315;28;20040;-77
2022/11/29 09:01:15;;;;;;;5.80;2.13;;;8.50;99.90;;;;;;5089118;28;20384;-76
2022/11/29 09:04:01;;;;;;;4.25;1.98;;;8.50;99.90;;;;;;5087493;28;20500;-76
2022/11/29 09:06:32;;;;;;;1.30;1.13;;;8.50;99.90;;;;;;5050921;28;20441;-77
2022/11/29 09:08:59;;;;;;;2.38;2.13;;;8.60;99.90;;;;;;5050212;28;20469;-75
2022/11/29 09:11:27;;;;;;;3.35;2.20;;;8.60;99.90;;;;;;5058658;28;20063;-76
2022/11/29 09:13:55;;;;;;;7.38;2.25;;;8.50;99.90;;;;;;5070049;28;20484;-75
2022/11/29 09:16:24;;;;;;;6.20;1.90;;;8.50;99.90;;;;;;5087498;28;20046;-76
2022/11/29 09:18:51;;;;;;;3.28;1.27;;;8.30;99.90;;;;;;5069524;28;20024;-77
2022/11/29 09:21:17;;;;;;;4.30;2.58;;;8.40;99.90;;;;;;5069611;28;20025;-76
2022/11/29 09:23:44;;;;;;;4.07;1.88;;;8.30;99.90;;;;;;5070811;28;20453;-76
2022/11/29 09:26:14;;;;;;;5.68;1.67;;;8.20;99.90;;;;;;5089272;28;20369;-75
2022/11/29 09:28:40;;;;;;;7.70;2.67;;;8.30;99.90;;;;;;5071480;28;20028;-77
2022/11/29 09:31:09;;;;;;;1.33;1.23;;;8.30;99.90;;;;;;5082403;28;20027;-76
2022/11/29 09:33:35;;;;;;;4.38;1.75;;;8.30;99.90;;;;;;5051997;28;20024;-76
2022/11/29 09:36:02;;;;;;;3.55;1.90;;;8.40;99.90;;;;;;5069772;28;20029;-75
2022/11/29 09:38:28;;;;;;;3.40;1.35;;;8.50;99.90;;;;;;5069773;28;20037;-76
2022/11/29 09:40:56;;;;;;;6.40;2.08;;;8.60;99.90;;;;;;5069630;28;20031;-76
2022/11/29 09:43:52;;;;;;;3.00;1.70;;;8.70;99.90;;;;;;5069609;28;20028;-76
2022/11/29 09:46:21;;;;;;;2.38;1.50;;;8.70;99.90;;;;;;5069340;28;20032;-76
2022/11/29 09:49:12;;;;;;;3.03;1.70;;;8.70;99.90;;;;;;5068933;28;20016;-76
2022/11/29 09:51:57;;;;;;;1.52;1.42;;;8.80;99.90;;;;;;5068351;28;20036;-76
2022/11/29 09:54:36;;;;;;;3.45;2.38;;;8.90;99.90;;;;;;5050465;28;20059;-76
2022/11/29 09:57:05;;;;;;;2.67;2.08;;;8.90;99.90;;;;;;5068781;28;20052;-76
2022/11/29 09:59:39;;;;;;;4.68;2.30;;;9.10;99.90;;;;;;5068762;28;20033;-75
2022/11/29 10:02:23;;;;;;;2.05;1.20;;;9.10;99.90;;;;;;5068251;28;20350;-76
2022/11/29 10:05:04;;;;;;;5.40;2.83;;;9.30;99.90;;;;;;5050444;28;20036;-76
2022/11/29 10:07:42;;;;;;;10.15;3.10;;;9.40;99.90;;;;;;5068947;28;20112;-76
2022/11/29 10:10:12;;;;;;;3.20;2.17;;;9.40;99.90;;;;;;5050850;28;20040;-75
2022/11/29 10:12:53;;;;;;;4.85;2.05;;;9.40;99.90;;;;;;5068858;28;20047;-76
2022/11/29 10:15:19;;;;;;;8.93;2.35;;;9.60;99.90;;;;;;5049591;28;20577;-76
2022/11/29 10:18:10;;;;;;;1.67;1.58;;;9.60;99.90;;;;;;5050355;28;20207;-76
2022/11/29 10:20:40;;;;;;;2.15;1.63;;;9.50;99.90;;;;;;5068145;28;20148;-76
2022/11/29 10:23:18;;;;;;;1.95;1.77;;;9.20;99.90;;;;;;5068799;28;20059;-76
2022/11/29 10:25:49;;;;;;;6.22;2.58;;;9.30;99.90;;;;;;5068210;28;20063;-76
2022/11/29 10:28:25;;;;;;;2.50;1.50;;;9.20;99.90;;;;;;5050359;28;20078;-76
2022/11/29 10:30:55;;;;;;;2.88;1.63;;;9.00;99.90;;;;;;5054984;28;20023;-78
2022/11/29 10:33:34;;;;;;;6.00;2.40;;;9.10;99.90;;;;;;5069932;28;20486;-76
2022/11/29 10:36:13;;;;;;;1.90;1.80;;;9.10;99.90;;;;;;5088106;28;20032;-76
2022/11/29 10:38:39;;;;;;;6.57;2.05;;;9.40;99.90;;;;;;5088358;28;20123;-76
2022/11/29 10:41:09;;;;;;;5.03;2.45;;;9.50;99.90;;;;;;5088137;28;20088;-76
2022/11/29 10:43:36;;;;;;;1.40;1.30;;;9.50;99.90;;;;;;5087954;28;20103;-77
2022/11/29 10:46:03;;;;;;;2.38;1.65;;;9.80;99.90;;;;;;5069362;28;20028;-76
2022/11/29 10:48:32;;;;;;;3.53;2.10;;;9.60;99.90;;;;;;5069441;28;20093;-77
2022/11/29 10:50:58;;;;;;;1.50;1.33;;;9.40;99.90;;;;;;5088069;28;20058;-76
2022/11/29 10:53:34;;;;;;;6.15;2.50;;;9.40;99.90;;;;;;5087992;28;20545;-76
2022/11/29 10:56:08;;;;;;;2.88;1.48;;;9.20;99.90;;;;;;5087708;28;20361;-76
2022/11/29 10:58:51;;;;;;;5.97;2.00;;;9.10;99.90;;;;;;5069553;28;20051;-75
2022/11/29 11:01:17;;;;;;;5.63;1.80;;;9.10;99.90;;;;;;5087947;28;20028;-76
2022/11/29 11:03:50;;;;;;;2.20;1.80;;;9.00;99.90;;;;;;5086757;28;20039;-77
2022/11/29 11:06:25;;;;;;;4.45;1.92;;;8.80;99.90;;;;;;5069439;28;20032;-76
2022/11/29 11:09:09;;;;;;;3.00;1.55;;;8.90;99.90;;;;;;5069271;28;20119;-76
2022/11/29 11:11:35;;;;;;;3.80;1.40;;;9.10;99.90;;;;;;5087539;28;20073;-76
2022/11/29 11:14:23;;;;;;;5.75;1.10;;;9.10;99.90;;;;;;5069207;28;20031;-76
2022/11/29 11:16:49;;;;;;;6.50;1.33;;;9.20;99.90;;;;;;5068968;28;20051;-77
2022/11/29 11:19:33;;;;;;;2.88;1.73;;;9.20;99.90;;;;;;5086163;28;20016;-76
2022/11/29 11:22:01;;;;;;;4.35;1.40;;;9.30;99.90;;;;;;5067907;28;20142;-76
2022/11/29 11:24:30;;;;;;;5.20;1.50;;;9.40;99.90;;;;;;5086507;28;20111;-76
2022/11/29 11:26:56;;;;;;;4.22;2.08;;;9.50;99.90;;;;;;5086154;28;20024;-76
2022/11/29 11:29:34;;;;;;;3.63;1.30;;;9.60;99.90;;;;;;5068181;28;20024;-77
2022/11/29 11:32:00;;;;;;;2.60;1.38;;;9.70;99.90;;;;;;5090822;28;20114;-77
2022/11/29 11:34:27;;;;;;;3.10;1.40;;;9.80;99.90;;;;;;5067106;28;20104;-75
2022/11/29 11:37:13;;;;;;;6.20;1.40;;;9.70;99.90;;;;;;5066914;28;20028;-75
2022/11/29 11:39:42;;;;;;;3.15;2.33;;;9.80;99.90;;;;;;5067241;28;20060;-76
2022/11/29 11:42:36;;;;;;;8.00;2.80;;;10.00;99.90;;;;;;5048762;28;20059;-76
2022/11/29 11:45:26;;;;;;;6.05;1.27;;;10.00;99.90;;;;;;5048831;28;20040;-76
2022/11/29 11:47:55;;;;;;;10.18;2.88;;;9.90;99.90;;;;;;5066617;28;20028;-76
2022/11/29 11:50:47;;;;;;;2.58;1.83;;;10.00;99.90;;;;;;5048650;28;20389;-75
2022/11/29 11:53:35;;;;;;;10.38;2.08;;;10.00;99.90;;;;;;5048806;28;20060;-75
2022/11/29 11:56:08;;;;;;;4.70;2.35;;;10.00;99.90;;;;;;5048860;28;20028;-76
2022/11/29 11:58:42;;;;;;;3.65;3.20;;;9.80;99.90;;;;;;5048286;28;20040;-75
2022/11/29 12:01:37;;;;;;;2.13;1.30;;;9.60;99.90;;;;;;5048653;28;20032;-76
2022/11/29 12:04:28;;;;;;;6.43;1.00;;;9.50;99.90;;;;;;5066393;28;20055;-75
2022/11/29 12:06:56;;;;;;;3.15;1.73;;;9.50;99.90;;;;;;5066638;28;20021;-76
2022/11/29 12:09:40;;;;;;;2.58;0.88;;;9.60;99.90;;;;;;5048670;28;20034;-76
2022/11/29 12:12:22;;;;;;;1.50;1.40;;;9.60;99.90;;;;;;5066441;28;20120;-76
2022/11/29 12:14:56;;;;;;;4.35;1.48;;;9.50;99.90;;;;;;5066661;28;20024;-77
2022/11/29 12:17:39;;;;;;;2.85;1.42;;;9.70;99.90;;;;;;5052916;28;20270;-76
2022/11/29 12:20:37;;;;;;;2.38;1.40;;;10.10;99.90;;;;;;5070012;28;20082;-77
2022/11/29 12:23:12;;;;;;;6.05;3.13;;;10.10;99.90;;;;;;5047748;28;20074;-76
2022/11/29 12:25:51;;;;;;;5.80;2.33;;;10.00;99.90;;;;;;5052349;28;20025;-75
2022/11/29 12:28:19;;;;;;;5.75;1.40;;;9.90;99.90;;;;;;5052461;28;20017;-75
2022/11/29 12:31:30;;;;;;;3.75;1.75;;;9.70;99.90;;;;;;5074668;28;20078;-77
2022/11/29 12:34:11;;;;;;;8.82;2.05;;;9.80;99.90;;;;;;5085138;28;20028;-76
2022/11/29 12:37:14;;;;;;;3.00;1.50;;;9.80;99.90;;;;;;5073339;28;20039;-76
2022/11/29 12:39:45;;;;;;;7.13;2.90;;;9.80;99.90;;;;;;5074087;28;20043;-77
2022/11/29 12:42:35;;;;;;;7.88;1.88;;;9.80;99.90;;;;;;5073019;28;20111;-76
2022/11/29 12:45:17;;;;;;;3.10;1.65;;;9.80;99.90;;;;;;5072228;28;20028;-76
2022/11/29 12:48:07;;;;;;;4.88;1.42;;;9.90;99.90;;;;;;5089990;28;20032;-76
2022/11/29 12:50:51;;;;;;;3.13;2.30;;;10.10;99.90;;;;;;5090350;28;20027;-75
2022/11/29 12:53:38;;;;;;;2.88;1.40;;;10.20;99.90;;;;;;5089794;28;20075;-76
2022/11/29 12:56:24;;;;;;;3.45;1.35;;;10.20;99.90;;;;;;5091100;28;20036;-76
2022/11/29 12:59:19;;;;;;;2.83;0.88;;;10.20;99.90;;;;;;5090479;28;20038;-76
2022/11/29 13:02:02;;;;;;;2.63;1.00;;;10.20;99.90;;;;;;5070709;28;20036;-76
2022/11/29 13:04:28;;;;;;;2.72;1.35;;;10.10;99.90;;;;;;5084379;28;20024;-77
2022/11/29 13:07:25;;;;;;;6.00;1.92;;;10.30;99.90;;;;;;5051851;28;20024;-76
2022/11/29 13:10:19;;;;;;;4.22;1.33;;;10.00;99.90;;;;;;5060404;28;20044;-75
2022/11/29 13:12:48;;;;;;;9.05;2.13;;;9.80;99.90;;;;;;5051331;28;20388;-76
2022/11/29 13:15:17;;;;;;;3.00;1.63;;;9.70;99.90;;;;;;5069428;28;20104;-77
2022/11/29 13:17:53;;;;;;;3.50;1.87;;;6.90;99.90;;;;;;5069697;28;20037;-76
2022/11/29 13:20:50;;;;;;;3.00;1.85;;;9.50;99.90;;;;;;5069095;28;20651;-76
2022/11/29 13:23:21;;;;;;;4.93;2.17;;;9.10;99.90;;;;;;5051242;28;20033;-77
2022/11/29 13:25:51;;;;;;;8.07;1.52;;;9.20;99.90;;;;;;5051256;28;20021;-76
2022/11/29 13:28:21;;;;;;;;;;;9.20;99.90;;;;;;5068387;28;20029;-76
2022/11/29 13:30:47;;;;;;;6.28;2.50;;;9.20;99.90;;;;;;5055625;28;20015;-76
2022/11/29 13:33:23;;;;;;;3.72;1.70;;;9.20;99.90;;;;;;5071398;28;20020;-76
2022/11/29 13:35:53;;;;;;;10.80;4.60;;;9.20;99.90;;;;;;5089641;28;20494;-75
2022/11/29 13:38:27;;;;;;;2.85;1.40;;;9.10;99.90;;;;;;5089379;28;20036;-76
2022/11/29 13:40:56;;;;;;;2.53;1.75;;;9.00;99.90;;;;;;5089413;28;20452;-76
2022/11/29 13:43:33;;;;;;;2.45;1.25;;;9.00;99.90;;;;;;5071395;28;20031;-77
2022/11/29 13:46:06;;;;;;;2.63;1.80;;;8.90;99.90;;;;;;5064088;28;20032;-76
2022/11/29 13:48:36;;;;;;;4.82;2.25;;;9.00;99.90;;;;;;5058571;28;20021;-76